createdAt,value
2018-12-19T00:00:32.593Z,3.23
2018-12-19T00:01:07.285Z,3.16
2018-12-19T00:01:41.897Z,3.16
2018-12-19T00:02:16.480Z,3.16
2018-12-19T00:02:51.705Z,3.14
2018-12-19T00:03:26.887Z,3.25
2018-12-19T00:04:01.585Z,3.18
2018-12-19T00:04:36.239Z,3.10
2018-12-19T00:05:10.838Z,3.07
2018-12-19T00:05:45.439Z,3.06
2018-12-19T00:06:20.033Z,3.10
2018-12-19T00:06:54.644Z,3.06
2018-12-19T00:07:29.281Z,3.16
2018-12-19T00:08:04.336Z,3.12
2018-12-19T00:08:39.118Z,3.19
2018-12-19T00:09:13.750Z,3.25
2018-12-19T00:09:48.369Z,3.32
2018-12-19T00:10:22.952Z,3.33
2018-12-19T00:10:57.702Z,3.22
2018-12-19T00:11:32.389Z,3.11
2018-12-19T00:12:07.028Z,3.04
2018-12-19T00:12:41.728Z,2.98
2018-12-19T00:13:18.382Z,2.91
2018-12-19T00:13:52.972Z,2.91
2018-12-19T00:14:27.771Z,2.97
2018-12-19T00:15:02.542Z,3.03
2018-12-19T00:15:37.247Z,2.98
2018-12-19T00:16:11.890Z,2.96
2018-12-19T00:16:46.476Z,2.88
2018-12-19T00:17:21.093Z,2.82
2018-12-19T00:17:55.742Z,2.85
2018-12-19T00:18:30.357Z,2.95
2018-12-19T00:19:05.037Z,2.97
2018-12-19T00:19:39.661Z,2.87
2018-12-19T00:20:14.278Z,2.86
2018-12-19T00:20:49.512Z,2.83
2018-12-19T00:21:24.171Z,2.81
2018-12-19T00:21:58.800Z,2.80
2018-12-19T00:22:33.434Z,2.80
2018-12-19T00:23:08.025Z,2.78
2018-12-19T00:23:42.678Z,2.84
2018-12-19T00:24:17.297Z,2.84
2018-12-19T00:24:51.942Z,2.82
2018-12-19T00:25:26.951Z,2.80
2018-12-19T00:26:01.973Z,2.82
2018-12-19T00:26:36.580Z,2.84
2018-12-19T00:27:11.335Z,2.83
2018-12-19T00:27:46.266Z,2.83
2018-12-19T00:28:20.857Z,2.85
2018-12-19T00:28:55.677Z,2.83
2018-12-19T00:29:30.432Z,2.81
2018-12-19T00:30:06.489Z,2.87
2018-12-19T00:30:41.497Z,2.86
2018-12-19T00:31:16.090Z,2.87
2018-12-19T00:31:50.769Z,2.88
2018-12-19T00:32:25.435Z,2.87
2018-12-19T00:33:00.092Z,2.88
2018-12-19T00:33:34.915Z,2.85
2018-12-19T00:34:09.625Z,2.85
2018-12-19T00:34:44.245Z,2.82
2018-12-19T00:35:18.965Z,2.83
2018-12-19T00:35:53.565Z,2.88
2018-12-19T00:36:28.311Z,2.87
2018-12-19T00:37:02.924Z,2.93
2018-12-19T00:37:37.500Z,2.89
2018-12-19T00:38:12.094Z,2.91
2018-12-19T00:38:46.723Z,2.99
2018-12-19T00:39:21.352Z,3.05
2018-12-19T00:39:56.199Z,3.02
2018-12-19T00:40:30.923Z,2.99
2018-12-19T00:41:05.507Z,2.97
2018-12-19T00:41:40.106Z,3.03
2018-12-19T00:42:14.814Z,3.02
2018-12-19T00:42:49.471Z,3.03
2018-12-19T00:43:24.159Z,3.02
2018-12-19T00:43:58.944Z,3.06
2018-12-19T00:44:33.648Z,3.07
2018-12-19T00:45:08.778Z,3.09
2018-12-19T00:45:43.452Z,3.08
2018-12-19T00:46:18.069Z,3.05
2018-12-19T00:46:52.793Z,3.05
2018-12-19T00:47:27.467Z,3.04
2018-12-19T00:48:02.089Z,3.02
2018-12-19T00:48:36.857Z,3.05
2018-12-19T00:49:11.611Z,3.04
2018-12-19T00:49:46.264Z,3.03
2018-12-19T00:50:21.060Z,3.00
2018-12-19T00:50:55.709Z,3.02
2018-12-19T00:51:30.418Z,3.04
2018-12-19T00:52:05.155Z,3.00
2018-12-19T00:52:39.847Z,3.20
2018-12-19T00:53:14.437Z,3.25
2018-12-19T00:53:49.029Z,3.25
2018-12-19T00:54:23.634Z,3.18
2018-12-19T00:54:58.451Z,3.17
2018-12-19T00:55:33.665Z,3.16
2018-12-19T00:56:08.293Z,3.16
2018-12-19T00:56:42.881Z,3.13
2018-12-19T00:57:17.489Z,3.16
2018-12-19T00:57:52.088Z,3.15
2018-12-19T00:58:26.770Z,3.14
2018-12-19T00:59:01.421Z,3.09
2018-12-19T00:59:36.176Z,3.09
2018-12-19T01:00:11.692Z,3.07
2018-12-19T01:00:46.318Z,3.08
2018-12-19T01:01:21.662Z,3.09
2018-12-19T01:01:56.780Z,3.13
2018-12-19T01:02:31.513Z,3.15
2018-12-19T01:03:06.143Z,3.19
2018-12-19T01:03:40.733Z,3.15
2018-12-19T01:04:15.357Z,3.15
2018-12-19T01:04:49.960Z,3.13
2018-12-19T01:05:24.668Z,3.13
2018-12-19T01:05:59.379Z,3.12
2018-12-19T01:06:34.116Z,3.12
2018-12-19T01:07:09.239Z,3.13
2018-12-19T01:07:43.945Z,3.11
2018-12-19T01:08:18.648Z,3.13
2018-12-19T01:08:53.377Z,3.13
2018-12-19T01:09:28.263Z,3.18
2018-12-19T01:10:03.218Z,3.19
2018-12-19T01:10:37.926Z,3.17
2018-12-19T01:11:12.684Z,3.21
2018-12-19T01:11:47.339Z,3.22
2018-12-19T01:12:21.970Z,3.30
2018-12-19T01:12:56.650Z,3.28
2018-12-19T01:13:31.909Z,3.24
2018-12-19T01:14:06.738Z,3.27
2018-12-19T01:14:41.371Z,3.27
2018-12-19T01:15:15.999Z,3.26
2018-12-19T01:15:50.692Z,3.41
2018-12-19T01:16:25.345Z,3.34
2018-12-19T01:17:00.133Z,3.34
2018-12-19T01:17:34.787Z,3.33
2018-12-19T01:18:09.540Z,3.32
2018-12-19T01:18:44.144Z,3.29
2018-12-19T01:19:18.760Z,3.38
2018-12-19T01:19:53.441Z,3.46
2018-12-19T01:20:28.166Z,3.38
2018-12-19T01:21:02.853Z,3.38
2018-12-19T01:21:37.886Z,3.36
2018-12-19T01:22:12.574Z,3.31
2018-12-19T01:22:47.776Z,3.29
2018-12-19T01:23:22.412Z,3.47
2018-12-19T01:23:57.069Z,3.39
2018-12-19T01:24:31.739Z,3.39
2018-12-19T01:25:06.871Z,3.36
2018-12-19T01:25:41.945Z,3.30
2018-12-19T01:26:16.562Z,3.27
2018-12-19T01:26:51.188Z,3.24
2018-12-19T01:27:25.804Z,3.25
2018-12-19T01:28:00.532Z,3.19
2018-12-19T01:28:35.263Z,3.24
2018-12-19T01:29:09.861Z,3.20
2018-12-19T01:29:44.480Z,3.21
2018-12-19T01:30:19.130Z,3.19
2018-12-19T01:30:53.750Z,3.19
2018-12-19T01:31:28.471Z,3.18
2018-12-19T01:32:03.257Z,3.16
2018-12-19T01:32:37.902Z,3.15
2018-12-19T01:33:12.539Z,3.16
2018-12-19T01:33:47.117Z,3.14
2018-12-19T01:34:21.817Z,3.16
2018-12-19T01:34:56.488Z,3.13
2018-12-19T01:35:31.230Z,3.14
2018-12-19T01:36:06.003Z,3.18
2018-12-19T01:36:40.676Z,3.12
2018-12-19T01:37:15.308Z,3.14
2018-12-19T01:37:49.908Z,3.19
2018-12-19T01:38:24.627Z,3.15
2018-12-19T01:38:59.374Z,3.09
2018-12-19T01:39:34.097Z,3.14
2018-12-19T01:40:08.803Z,3.13
2018-12-19T01:40:43.435Z,3.14
2018-12-19T01:41:18.104Z,3.13
2018-12-19T01:41:52.829Z,3.12
2018-12-19T01:42:27.614Z,3.20
2018-12-19T01:43:02.489Z,3.26
2018-12-19T01:43:37.290Z,3.23
2018-12-19T01:44:11.888Z,3.22
2018-12-19T01:44:46.548Z,3.19
2018-12-19T01:45:21.722Z,3.13
2018-12-19T01:45:56.352Z,3.16
2018-12-19T01:46:31.109Z,3.16
2018-12-19T01:47:05.688Z,3.15
2018-12-19T01:47:40.553Z,3.18
2018-12-19T01:48:15.169Z,3.24
2018-12-19T01:48:49.783Z,3.23
2018-12-19T01:49:24.916Z,3.25
2018-12-19T01:49:59.581Z,3.38
2018-12-19T01:50:34.335Z,3.36
2018-12-19T01:51:09.320Z,3.39
2018-12-19T01:51:44.059Z,3.45
2018-12-19T01:52:18.652Z,3.44
2018-12-19T01:52:53.255Z,3.43
2018-12-19T01:53:28.020Z,3.43
2018-12-19T01:54:02.737Z,3.39
2018-12-19T01:54:37.377Z,3.36
2018-12-19T01:55:12.013Z,3.42
2018-12-19T01:55:46.958Z,3.39
2018-12-19T01:56:21.572Z,3.42
2018-12-19T01:56:56.218Z,3.39
2018-12-19T01:57:31.026Z,3.35
2018-12-19T01:58:05.746Z,3.43
2018-12-19T01:58:40.454Z,3.44
2018-12-19T01:59:15.078Z,3.39
2018-12-19T01:59:50.176Z,3.36
2018-12-19T02:00:28.983Z,3.35
2018-12-19T02:01:03.745Z,3.34
2018-12-19T02:01:38.349Z,3.34
2018-12-19T02:02:13.470Z,3.38
2018-12-19T02:02:48.082Z,3.39
2018-12-19T02:03:22.685Z,3.39
2018-12-19T02:03:57.524Z,3.30
2018-12-19T02:04:32.248Z,3.37
2018-12-19T02:05:06.978Z,3.41
2018-12-19T02:05:41.827Z,3.43
2018-12-19T02:06:16.471Z,3.43
2018-12-19T02:06:51.083Z,3.36
2018-12-19T02:07:25.721Z,3.38
2018-12-19T02:08:00.363Z,3.37
2018-12-19T02:08:35.026Z,3.35
2018-12-19T02:09:10.149Z,3.36
2018-12-19T02:09:44.906Z,3.39
2018-12-19T02:10:19.526Z,3.40
2018-12-19T02:10:54.219Z,3.40
2018-12-19T02:11:28.879Z,3.40
2018-12-19T02:12:04.056Z,3.45
2018-12-19T02:12:38.781Z,3.41
2018-12-19T02:13:13.488Z,3.38
2018-12-19T02:13:48.295Z,3.37
2018-12-19T02:14:22.914Z,3.33
2018-12-19T02:14:57.673Z,3.35
2018-12-19T02:15:32.284Z,3.32
2018-12-19T02:16:06.960Z,3.32
2018-12-19T02:16:41.559Z,3.31
2018-12-19T02:17:16.193Z,3.29
2018-12-19T02:17:50.784Z,3.28
2018-12-19T02:18:25.402Z,3.25
2018-12-19T02:19:00.146Z,3.25
2018-12-19T02:19:34.803Z,3.27
2018-12-19T02:20:09.480Z,3.36
2018-12-19T02:20:44.093Z,3.42
2018-12-19T02:21:18.691Z,3.43
2018-12-19T02:21:53.414Z,3.49
2018-12-19T02:22:28.585Z,3.47
2018-12-19T02:23:03.312Z,3.46
2018-12-19T02:23:38.257Z,3.51
2018-12-19T02:24:12.909Z,3.48
2018-12-19T02:24:47.630Z,3.45
2018-12-19T02:25:22.244Z,3.44
2018-12-19T02:25:57.076Z,3.39
2018-12-19T02:26:31.776Z,3.34
2018-12-19T02:27:06.426Z,3.32
2018-12-19T02:27:41.092Z,3.36
2018-12-19T02:28:15.695Z,3.43
2018-12-19T02:28:50.750Z,3.50
2018-12-19T02:29:25.349Z,3.52
2018-12-19T02:30:00.125Z,3.47
2018-12-19T02:30:35.075Z,3.43
2018-12-19T02:31:10.057Z,3.50
2018-12-19T02:31:44.651Z,3.45
2018-12-19T02:32:19.342Z,3.44
2018-12-19T02:32:53.953Z,3.41
2018-12-19T02:33:28.729Z,3.42
2018-12-19T02:34:03.984Z,3.42
2018-12-19T02:34:38.700Z,3.39
2018-12-19T02:35:13.826Z,3.47
2018-12-19T02:35:48.421Z,3.44
2018-12-19T02:36:23.425Z,3.46
2018-12-19T02:36:58.076Z,3.45
2018-12-19T02:37:32.722Z,3.49
2018-12-19T02:38:07.436Z,3.57
2018-12-19T02:38:42.063Z,3.56
2018-12-19T02:39:16.657Z,3.55
2018-12-19T02:39:51.279Z,3.56
2018-12-19T02:40:25.925Z,3.54
2018-12-19T02:41:00.665Z,3.54
2018-12-19T02:41:35.324Z,3.72
2018-12-19T02:42:10.401Z,3.64
2018-12-19T02:42:45.021Z,3.61
2018-12-19T02:43:19.623Z,3.60
2018-12-19T02:43:54.287Z,3.56
2018-12-19T02:44:28.956Z,3.52
2018-12-19T02:45:04.656Z,3.50
2018-12-19T02:45:39.282Z,3.48
2018-12-19T02:46:13.918Z,3.50
2018-12-19T02:46:54.865Z,3.51
2018-12-19T02:47:29.600Z,3.54
2018-12-19T02:48:04.243Z,3.53
2018-12-19T02:48:38.891Z,3.52
2018-12-19T02:49:13.596Z,3.53
2018-12-19T02:49:48.221Z,3.54
2018-12-19T02:50:22.835Z,3.51
2018-12-19T02:50:58.292Z,3.61
2018-12-19T02:51:32.907Z,3.63
2018-12-19T02:52:07.158Z,3.58
2018-12-19T02:52:41.769Z,3.66
2018-12-19T02:53:16.398Z,3.71
2018-12-19T02:53:51.050Z,3.73
2018-12-19T02:54:25.773Z,3.73
2018-12-19T02:55:00.456Z,3.68
2018-12-19T02:55:35.164Z,3.62
2018-12-19T02:56:09.805Z,3.59
2018-12-19T02:56:44.425Z,3.58
2018-12-19T02:57:19.054Z,3.54
2018-12-19T02:57:54.002Z,3.55
2018-12-19T02:58:28.946Z,3.51
2018-12-19T02:59:03.669Z,3.55
2018-12-19T02:59:38.297Z,3.43
2018-12-19T03:00:12.940Z,3.39
2018-12-19T03:00:47.539Z,3.46
2018-12-19T03:01:22.162Z,3.43
2018-12-19T03:01:56.924Z,3.51
2018-12-19T03:02:31.615Z,3.53
2018-12-19T03:03:06.278Z,3.55
2018-12-19T03:03:40.923Z,3.47
2018-12-19T03:04:15.543Z,3.41
2018-12-19T03:04:50.187Z,3.47
2018-12-19T03:05:24.890Z,3.16
2018-12-19T03:05:59.616Z,3.55
2018-12-19T03:06:34.306Z,3.55
2018-12-19T03:07:09.047Z,3.48
2018-12-19T03:07:43.724Z,3.50
2018-12-19T03:08:18.340Z,3.41
2018-12-19T03:08:52.968Z,3.43
2018-12-19T03:09:27.699Z,3.38
2018-12-19T03:10:02.357Z,3.42
2018-12-19T03:10:37.074Z,3.40
2018-12-19T03:11:12.354Z,3.56
2018-12-19T03:11:46.993Z,3.58
2018-12-19T03:12:21.586Z,3.55
2018-12-19T03:12:56.250Z,3.47
2018-12-19T03:13:31.451Z,3.49
2018-12-19T03:14:06.103Z,3.45
2018-12-19T03:14:40.693Z,3.39
2018-12-19T03:15:15.320Z,3.36
2018-12-19T03:15:49.944Z,3.34
2018-12-19T03:16:24.898Z,3.34
2018-12-19T03:16:59.626Z,3.32
2018-12-19T03:17:34.312Z,3.29
2018-12-19T03:18:08.973Z,3.30
2018-12-19T03:18:43.564Z,3.34
2018-12-19T03:19:18.305Z,3.35
2018-12-19T03:19:52.946Z,3.41
2018-12-19T03:20:27.610Z,3.44
2018-12-19T03:21:02.633Z,3.45
2018-12-19T03:21:37.335Z,3.41
2018-12-19T03:22:11.950Z,3.42
2018-12-19T03:22:46.591Z,3.43
2018-12-19T03:23:21.173Z,3.51
2018-12-19T03:23:55.792Z,3.49
2018-12-19T03:24:30.677Z,3.40
2018-12-19T03:25:06.211Z,3.41
2018-12-19T03:25:40.820Z,3.41
2018-12-19T03:26:15.407Z,3.45
2018-12-19T03:26:56.368Z,3.44
2018-12-19T03:27:31.237Z,3.40
2018-12-19T03:28:06.031Z,3.37
2018-12-19T03:28:40.692Z,3.42
2018-12-19T03:29:15.412Z,3.41
2018-12-19T03:29:50.039Z,3.44
2018-12-19T03:30:24.770Z,3.42
2018-12-19T03:30:59.468Z,3.40
2018-12-19T03:31:34.132Z,3.35
2018-12-19T03:32:08.807Z,3.29
2018-12-19T03:32:43.422Z,3.30
2018-12-19T03:33:18.036Z,3.31
2018-12-19T03:33:52.658Z,3.28
2018-12-19T03:34:27.355Z,3.44
2018-12-19T03:35:02.019Z,3.38
2018-12-19T03:35:36.724Z,3.35
2018-12-19T03:36:11.398Z,3.38
2018-12-19T03:36:46.028Z,3.47
2018-12-19T03:37:20.627Z,3.45
2018-12-19T03:37:55.245Z,3.42
2018-12-19T03:38:30.238Z,3.40
2018-12-19T03:39:07.498Z,3.37
2018-12-19T03:39:42.070Z,3.34
2018-12-19T03:40:16.784Z,3.52
2018-12-19T03:40:51.491Z,3.47
2018-12-19T03:41:26.136Z,3.43
2018-12-19T03:42:00.755Z,3.40
2018-12-19T03:42:35.432Z,3.36
2018-12-19T03:43:10.061Z,3.31
2018-12-19T03:43:44.802Z,3.30
2018-12-19T03:44:19.485Z,3.28
2018-12-19T03:44:54.097Z,3.23
2018-12-19T03:45:28.791Z,3.22
2018-12-19T03:46:03.413Z,3.21
2018-12-19T03:46:38.484Z,3.18
2018-12-19T03:47:13.310Z,3.15
2018-12-19T03:47:47.910Z,3.12
2018-12-19T03:48:27.951Z,3.10
2018-12-19T03:49:02.594Z,3.08
2018-12-19T03:49:38.012Z,3.14
2018-12-19T03:50:12.953Z,3.14
2018-12-19T03:50:47.623Z,3.12
2018-12-19T03:51:22.244Z,3.10
2018-12-19T03:51:56.928Z,3.09
2018-12-19T03:52:31.684Z,3.12
2018-12-19T03:53:06.393Z,3.13
2018-12-19T03:53:40.992Z,3.13
2018-12-19T03:54:15.915Z,3.12
2018-12-19T03:54:50.539Z,3.18
2018-12-19T03:55:25.162Z,3.24
2018-12-19T03:55:59.957Z,3.21
2018-12-19T03:56:34.610Z,3.22
2018-12-19T03:57:09.928Z,3.23
2018-12-19T03:57:44.660Z,3.21
2018-12-19T03:58:19.367Z,3.23
2018-12-19T03:58:54.078Z,3.22
2018-12-19T03:59:28.931Z,3.22
2018-12-19T04:00:04.811Z,3.20
2018-12-19T04:00:39.448Z,3.21
2018-12-19T04:01:14.062Z,3.28
2018-12-19T04:01:48.785Z,3.29
2018-12-19T04:02:23.425Z,3.25
2018-12-19T04:02:58.288Z,3.23
2018-12-19T04:03:33.220Z,3.28
2018-12-19T04:04:07.816Z,3.35
2018-12-19T04:04:42.507Z,3.33
2018-12-19T04:05:17.112Z,3.33
2018-12-19T04:05:51.759Z,3.33
2018-12-19T04:06:26.424Z,3.30
2018-12-19T04:07:01.445Z,3.28
2018-12-19T04:07:36.072Z,3.27
2018-12-19T04:08:10.665Z,3.28
2018-12-19T04:08:45.277Z,3.34
2018-12-19T04:09:19.906Z,3.32
2018-12-19T04:09:57.983Z,3.32
2018-12-19T04:10:31.332Z,3.29
2018-12-19T04:11:06.488Z,3.32
2018-12-19T04:11:41.078Z,3.34
2018-12-19T04:12:15.783Z,3.29
2018-12-19T04:12:50.386Z,3.28
2018-12-19T04:13:25.019Z,3.30
2018-12-19T04:13:59.699Z,3.33
2018-12-19T04:14:34.462Z,3.42
2018-12-19T04:15:09.120Z,3.41
2018-12-19T04:15:43.740Z,3.41
2018-12-19T04:16:18.362Z,3.38
2018-12-19T04:16:53.093Z,3.37
2018-12-19T04:17:27.838Z,3.34
2018-12-19T04:18:02.610Z,3.32
2018-12-19T04:18:37.544Z,3.39
2018-12-19T04:19:12.189Z,3.36
2018-12-19T04:19:47.292Z,3.32
2018-12-19T04:20:21.902Z,3.40
2018-12-19T04:20:56.548Z,3.41
2018-12-19T04:21:31.238Z,3.41
2018-12-19T04:22:05.889Z,3.39
2018-12-19T04:22:40.536Z,3.37
2018-12-19T04:23:15.165Z,3.36
2018-12-19T04:23:49.749Z,3.35
2018-12-19T04:24:24.615Z,3.31
2018-12-19T04:24:59.375Z,3.29
2018-12-19T04:25:34.147Z,3.34
2018-12-19T04:26:08.763Z,3.32
2018-12-19T04:26:43.474Z,3.31
2018-12-19T04:27:18.076Z,3.29
2018-12-19T04:27:52.696Z,3.30
2018-12-19T04:28:27.865Z,3.29
2018-12-19T04:29:02.562Z,3.28
2018-12-19T04:29:37.739Z,3.41
2018-12-19T04:30:12.373Z,3.40
2018-12-19T04:30:46.976Z,3.48
2018-12-19T04:31:21.699Z,3.40
2018-12-19T04:31:56.358Z,3.38
2018-12-19T04:32:31.547Z,3.38
2018-12-19T04:33:06.281Z,3.36
2018-12-19T04:33:40.902Z,3.34
2018-12-19T04:34:15.567Z,3.37
2018-12-19T04:34:50.232Z,3.32
2018-12-19T04:35:24.936Z,3.40
2018-12-19T04:35:59.625Z,3.36
2018-12-19T04:36:34.287Z,3.37
2018-12-19T04:37:08.966Z,3.37
2018-12-19T04:37:44.159Z,3.40
2018-12-19T04:38:19.134Z,3.39
2018-12-19T04:38:53.760Z,3.47
2018-12-19T04:39:28.491Z,3.55
2018-12-19T04:40:05.716Z,3.52
2018-12-19T04:40:40.368Z,3.46
2018-12-19T04:41:15.532Z,3.43
2018-12-19T04:41:50.180Z,3.38
2018-12-19T04:42:24.769Z,3.36
2018-12-19T04:42:59.496Z,3.41
2018-12-19T04:43:34.129Z,3.39
2018-12-19T04:44:08.735Z,3.38
2018-12-19T04:44:43.378Z,3.40
2018-12-19T04:45:18.053Z,3.44
2018-12-19T04:45:52.653Z,3.47
2018-12-19T04:46:27.298Z,3.43
2018-12-19T04:47:01.928Z,3.42
2018-12-19T04:47:36.525Z,3.41
2018-12-19T04:48:11.167Z,3.41
2018-12-19T04:48:45.874Z,3.36
2018-12-19T04:49:20.618Z,3.35
2018-12-19T04:49:55.266Z,3.31
2018-12-19T04:50:29.967Z,3.39
2018-12-19T04:51:04.638Z,3.43
2018-12-19T04:51:39.287Z,3.48
2018-12-19T04:52:13.857Z,3.46
2018-12-19T04:52:48.469Z,3.47
2018-12-19T04:53:23.050Z,3.52
2018-12-19T04:53:57.738Z,3.50
2018-12-19T04:54:32.423Z,3.48
2018-12-19T04:55:07.661Z,3.48
2018-12-19T04:55:42.268Z,3.58
2018-12-19T04:56:16.874Z,3.54
2018-12-19T04:56:51.498Z,3.56
2018-12-19T04:57:26.108Z,3.51
2018-12-19T04:58:00.805Z,3.48
2018-12-19T04:58:35.464Z,3.53
2018-12-19T04:59:10.161Z,3.69
2018-12-19T04:59:45.008Z,3.63
2018-12-19T05:00:19.625Z,3.58
2018-12-19T05:00:54.728Z,3.59
2018-12-19T05:01:29.488Z,3.54
2018-12-19T05:02:04.696Z,3.53
2018-12-19T05:02:39.291Z,3.51
2018-12-19T05:03:13.996Z,3.48
2018-12-19T05:03:48.600Z,3.47
2018-12-19T05:04:23.253Z,3.49
2018-12-19T05:04:58.072Z,3.56
2018-12-19T05:05:33.092Z,3.56
2018-12-19T05:06:07.699Z,3.54
2018-12-19T05:06:42.285Z,3.55
2018-12-19T05:07:17.257Z,3.55
2018-12-19T05:07:52.356Z,3.55
2018-12-19T05:08:27.479Z,3.59
2018-12-19T05:09:02.100Z,3.58
2018-12-19T05:09:37.137Z,3.61
2018-12-19T05:10:12.536Z,3.64
2018-12-19T05:10:47.663Z,3.62
2018-12-19T05:11:22.289Z,3.61
2018-12-19T05:11:57.664Z,3.63
2018-12-19T05:12:34.214Z,3.67
2018-12-19T05:13:08.812Z,3.69
2018-12-19T05:13:43.487Z,3.66
2018-12-19T05:14:18.423Z,3.65
2018-12-19T05:14:53.489Z,3.65
2018-12-19T05:15:28.596Z,3.78
2018-12-19T05:16:03.306Z,3.80
2018-12-19T05:16:38.022Z,3.83
2018-12-19T05:17:12.612Z,3.79
2018-12-19T05:17:47.339Z,3.70
2018-12-19T05:18:21.949Z,3.66
2018-12-19T05:18:56.575Z,3.59
2018-12-19T05:19:31.330Z,3.51
2018-12-19T05:20:08.427Z,3.48
2018-12-19T05:20:43.035Z,3.47
2018-12-19T05:21:17.668Z,3.57
2018-12-19T05:21:52.268Z,3.54
2018-12-19T05:22:26.928Z,3.53
2018-12-19T05:23:01.682Z,3.51
2018-12-19T05:23:36.309Z,3.51
2018-12-19T05:24:10.978Z,3.56
2018-12-19T05:24:45.694Z,3.56
2018-12-19T05:25:20.302Z,3.58
2018-12-19T05:25:55.022Z,3.58
2018-12-19T05:26:29.909Z,3.56
2018-12-19T05:27:04.603Z,3.56
2018-12-19T05:27:39.361Z,3.59
2018-12-19T05:28:13.956Z,3.61
2018-12-19T05:28:48.603Z,3.58
2018-12-19T05:29:23.341Z,3.56
2018-12-19T05:29:58.043Z,3.53
2018-12-19T05:30:32.769Z,3.60
2018-12-19T05:31:07.502Z,3.63
2018-12-19T05:31:42.102Z,3.62
2018-12-19T05:32:16.720Z,3.63
2018-12-19T05:32:51.422Z,3.68
2018-12-19T05:33:26.153Z,3.66
2018-12-19T05:34:00.910Z,3.69
2018-12-19T05:34:36.001Z,3.71
2018-12-19T05:35:10.633Z,3.71
2018-12-19T05:35:45.283Z,3.85
2018-12-19T05:36:19.908Z,3.82
2018-12-19T05:36:54.726Z,3.79
2018-12-19T05:37:29.485Z,3.75
2018-12-19T05:38:04.151Z,3.86
2018-12-19T05:38:38.775Z,3.80
2018-12-19T05:39:13.395Z,3.82
2018-12-19T05:39:48.010Z,3.75
2018-12-19T05:40:22.664Z,3.69
2018-12-19T05:40:57.399Z,3.74
2018-12-19T05:41:32.079Z,3.84
2018-12-19T05:42:06.775Z,3.84
2018-12-19T05:42:41.372Z,3.83
2018-12-19T05:43:15.977Z,3.79
2018-12-19T05:43:50.576Z,3.79
2018-12-19T05:44:25.223Z,3.80
2018-12-19T05:44:59.937Z,3.78
2018-12-19T05:45:34.676Z,3.98
2018-12-19T05:46:09.401Z,4.03
2018-12-19T05:46:44.098Z,3.97
2018-12-19T05:47:19.069Z,3.98
2018-12-19T05:47:53.725Z,4.01
2018-12-19T05:48:28.458Z,3.99
2018-12-19T05:49:03.261Z,3.91
2018-12-19T05:49:38.277Z,3.88
2018-12-19T05:50:13.754Z,3.88
2018-12-19T05:50:48.443Z,4.09
2018-12-19T05:51:23.099Z,4.04
2018-12-19T05:51:57.769Z,3.96
2018-12-19T05:52:32.927Z,4.08
2018-12-19T05:53:08.161Z,4.14
2018-12-19T05:53:42.787Z,4.05
2018-12-19T05:54:18.059Z,3.98
2018-12-19T05:54:52.921Z,3.92
2018-12-19T05:55:27.754Z,3.88
2018-12-19T05:56:02.456Z,3.80
2018-12-19T05:56:37.581Z,3.83
2018-12-19T05:57:12.522Z,3.80
2018-12-19T05:57:47.150Z,3.75
2018-12-19T05:58:21.770Z,3.71
2018-12-19T05:58:56.418Z,3.69
2018-12-19T05:59:31.474Z,3.67
2018-12-19T06:00:08.469Z,3.66
2018-12-19T06:00:43.134Z,3.67
2018-12-19T06:01:17.755Z,3.68
2018-12-19T06:01:52.388Z,3.79
2018-12-19T06:02:27.172Z,3.76
2018-12-19T06:03:01.894Z,3.80
2018-12-19T06:03:37.165Z,3.78
2018-12-19T06:04:11.832Z,3.78
2018-12-19T06:04:46.483Z,3.80
2018-12-19T06:05:21.097Z,3.98
2018-12-19T06:05:55.824Z,4.08
2018-12-19T06:06:30.473Z,4.02
2018-12-19T06:07:05.148Z,3.98
2018-12-19T06:07:39.744Z,3.97
2018-12-19T06:08:14.385Z,4.04
2018-12-19T06:08:49.061Z,4.04
2018-12-19T06:09:23.730Z,4.00
2018-12-19T06:10:05.075Z,3.97
2018-12-19T06:10:39.708Z,3.95
2018-12-19T06:11:14.396Z,4.06
2018-12-19T06:11:48.989Z,4.03
2018-12-19T06:12:24.151Z,3.98
2018-12-19T06:12:58.880Z,3.90
2018-12-19T06:13:33.631Z,3.94
2018-12-19T06:14:08.241Z,3.91
2018-12-19T06:14:42.889Z,3.94
2018-12-19T06:15:17.493Z,4.15
2018-12-19T06:15:52.127Z,4.05
2018-12-19T06:16:26.862Z,4.00
2018-12-19T06:17:01.549Z,3.97
2018-12-19T06:17:36.265Z,3.98
2018-12-19T06:18:10.891Z,3.95
2018-12-19T06:18:45.609Z,3.90
2018-12-19T06:19:20.241Z,3.92
2018-12-19T06:19:54.894Z,3.92
2018-12-19T06:20:29.692Z,3.95
2018-12-19T06:21:04.979Z,4.06
2018-12-19T06:21:39.602Z,4.01
2018-12-19T06:22:14.214Z,3.97
2018-12-19T06:22:48.812Z,3.97
2018-12-19T06:23:23.430Z,4.01
2018-12-19T06:23:58.144Z,3.99
2018-12-19T06:24:32.961Z,4.00
2018-12-19T06:25:08.055Z,3.99
2018-12-19T06:25:43.147Z,4.04
2018-12-19T06:26:17.877Z,4.04
2018-12-19T06:26:52.461Z,4.02
2018-12-19T06:27:27.100Z,3.97
2018-12-19T06:28:01.790Z,3.94
2018-12-19T06:28:36.402Z,4.07
2018-12-19T06:29:10.992Z,4.04
2018-12-19T06:29:45.630Z,4.05
2018-12-19T06:30:20.564Z,4.05
2018-12-19T06:30:55.218Z,4.06
2018-12-19T06:31:29.865Z,4.06
2018-12-19T06:32:05.006Z,4.05
2018-12-19T06:32:40.005Z,4.15
2018-12-19T06:33:14.632Z,4.13
2018-12-19T06:33:49.624Z,4.31
2018-12-19T06:34:24.220Z,4.30
2018-12-19T06:34:58.842Z,4.43
2018-12-19T06:35:33.476Z,4.51
2018-12-19T06:36:08.101Z,4.46
2018-12-19T06:36:42.722Z,4.41
2018-12-19T06:37:17.370Z,4.42
2018-12-19T06:37:52.083Z,4.50
2018-12-19T06:38:26.717Z,4.61
2018-12-19T06:39:01.779Z,4.71
2018-12-19T06:39:36.468Z,4.65
2018-12-19T06:40:11.156Z,4.60
2018-12-19T06:40:45.787Z,4.54
2018-12-19T06:41:20.502Z,4.61
2018-12-19T06:41:55.105Z,4.60
2018-12-19T06:42:29.767Z,4.64
2018-12-19T06:43:04.962Z,4.64
2018-12-19T06:43:40.269Z,4.73
2018-12-19T06:44:44.597Z,4.76
2018-12-19T06:45:19.273Z,4.71
2018-12-19T06:45:54.202Z,4.72
2018-12-19T06:46:28.918Z,4.76
2018-12-19T06:47:04.075Z,4.76
2018-12-19T06:47:38.688Z,4.73
2018-12-19T06:48:13.278Z,4.69
2018-12-19T06:48:47.885Z,4.70
2018-12-19T06:49:22.477Z,4.71
2018-12-19T06:49:57.225Z,4.74
2018-12-19T06:50:32.133Z,4.76
2018-12-19T06:51:06.859Z,4.95
2018-12-19T06:51:41.481Z,4.91
2018-12-19T06:52:16.172Z,4.94
2018-12-19T06:52:50.768Z,4.96
2018-12-19T06:53:25.381Z,4.88
2018-12-19T06:54:00.129Z,4.91
2018-12-19T06:54:34.770Z,4.91
2018-12-19T06:55:09.410Z,4.84
2018-12-19T06:55:44.613Z,4.85
2018-12-19T06:56:19.269Z,4.90
2018-12-19T06:56:53.877Z,4.95
2018-12-19T06:57:28.593Z,5.00
2018-12-19T06:58:03.256Z,4.96
2018-12-19T06:58:37.884Z,4.99
2018-12-19T06:59:12.504Z,5.03
2018-12-19T06:59:47.223Z,5.07
2018-12-19T07:00:21.821Z,5.11
2018-12-19T07:00:56.416Z,5.09
2018-12-19T07:01:31.400Z,5.02
2018-12-19T07:02:06.120Z,5.02
2018-12-19T07:02:40.798Z,4.96
2018-12-19T07:03:15.409Z,4.97
2018-12-19T07:03:50.044Z,5.08
2018-12-19T07:04:24.670Z,5.20
2018-12-19T07:04:59.438Z,5.15
2018-12-19T07:05:34.536Z,5.18
2018-12-19T07:06:09.332Z,5.22
2018-12-19T07:06:43.972Z,5.23
2018-12-19T07:07:18.642Z,5.35
2018-12-19T07:07:53.289Z,5.42
2018-12-19T07:08:28.125Z,5.37
2018-12-19T07:09:04.086Z,5.28
2018-12-19T07:09:38.732Z,5.30
2018-12-19T07:10:13.332Z,5.34
2018-12-19T07:10:48.103Z,5.42
2018-12-19T07:11:24.045Z,5.39
2018-12-19T07:11:58.732Z,5.29
2018-12-19T07:12:33.469Z,5.26
2018-12-19T07:13:08.135Z,5.20
2018-12-19T07:13:42.778Z,5.25
2018-12-19T07:14:17.392Z,5.25
2018-12-19T07:14:52.361Z,5.19
2018-12-19T07:15:27.103Z,5.18
2018-12-19T07:16:01.744Z,5.19
2018-12-19T07:16:36.569Z,5.24
2018-12-19T07:17:11.193Z,5.30
2018-12-19T07:17:46.180Z,5.36
2018-12-19T07:18:20.801Z,5.32
2018-12-19T07:18:55.594Z,5.35
2018-12-19T07:19:30.553Z,5.33
2018-12-19T07:20:06.295Z,5.33
2018-12-19T07:20:40.946Z,5.29
2018-12-19T07:21:15.536Z,5.21
2018-12-19T07:21:50.253Z,5.19
2018-12-19T07:22:24.895Z,5.29
2018-12-19T07:22:59.669Z,5.29
2018-12-19T07:23:34.430Z,5.30
2018-12-19T07:24:09.173Z,5.28
2018-12-19T07:24:43.874Z,5.26
2018-12-19T07:25:18.654Z,5.20
2018-12-19T07:25:53.254Z,5.16
2018-12-19T07:26:28.473Z,5.14
2018-12-19T07:27:03.650Z,5.38
2018-12-19T07:27:38.222Z,5.38
2018-12-19T07:28:12.856Z,5.21
2018-12-19T07:28:47.514Z,5.16
2018-12-19T07:29:22.182Z,5.29
2018-12-19T07:29:57.987Z,5.22
2018-12-19T07:30:33.290Z,5.12
2018-12-19T07:31:07.876Z,5.03
2018-12-19T07:31:42.633Z,4.91
2018-12-19T07:32:17.256Z,4.85
2018-12-19T07:32:51.862Z,4.79
2018-12-19T07:33:26.525Z,4.89
2018-12-19T07:34:01.464Z,4.82
2018-12-19T07:34:36.208Z,4.88
2018-12-19T07:35:11.036Z,4.86
2018-12-19T07:35:45.687Z,4.81
2018-12-19T07:36:20.292Z,4.74
2018-12-19T07:36:54.927Z,4.71
2018-12-19T07:37:29.713Z,4.66
2018-12-19T07:38:04.969Z,4.65
2018-12-19T07:38:39.577Z,4.65
2018-12-19T07:39:14.232Z,4.69
2018-12-19T07:39:48.877Z,4.69
2018-12-19T07:40:23.501Z,4.62
2018-12-19T07:40:58.349Z,4.58
2018-12-19T07:41:33.145Z,4.61
2018-12-19T07:42:07.794Z,4.71
2018-12-19T07:42:42.537Z,4.65
2018-12-19T07:43:17.162Z,4.65
2018-12-19T07:43:51.756Z,4.66